sensor_id;sensor_type;location;lat;lon;timestamp;temperature;humidity
23495;DHT22;26107;50.832;2.950;2024-03-08T00:13:56;7.50;99.90
23495;DHT22;26107;50.832;2.950;2024-03-08T00:28:59;7.50;99.90
23495;DHT22;26107;50.832;2.950;2024-03-08T00:44:00;7.30;99.90
23495;DHT22;26107;50.832;2.950;2024-03-08T00:59:06;7.30;99.90
23495;DHT22;26107;50.832;2.950;2024-03-08T01:14:07;7.20;99.90
23495;DHT22;26107;50.832;2.950;2024-03-08T01:29:09;7.00;99.90
23495;DHT22;26107;50.832;2.950;2024-03-08T01:44:12;6.90;99.90
23495;DHT22;26107;50.832;2.950;2024-03-08T01:59:17;6.90;99.90
23495;DHT22;26107;50.832;2.950;2024-03-08T02:14:18;6.70;99.90
23495;DHT22;26107;50.832;2.950;2024-03-08T02:29:22;6.40;99.90
23495;DHT22;26107;50.832;2.950;2024-03-08T02:44:24;6.30;99.90
23495;DHT22;26107;50.832;2.950;2024-03-08T02:59:24;6.20;99.90
23495;DHT22;26107;50.832;2.950;2024-03-08T03:14:27;6.10;99.90
23495;DHT22;26107;50.832;2.950;2024-03-08T03:29:28;6.00;99.90
23495;DHT22;26107;50.832;2.950;2024-03-08T03:44:30;5.90;99.90
23495;DHT22;26107;50.832;2.950;2024-03-08T03:59:31;5.80;99.90
23495;DHT22;26107;50.832;2.950;2024-03-08T04:14:32;5.70;99.90
23495;DHT22;26107;50.832;2.950;2024-03-08T04:29:32;5.60;99.90
23495;DHT22;26107;50.832;2.950;2024-03-08T04:44:35;5.50;99.90
23495;DHT22;26107;50.832;2.950;2024-03-08T04:59:36;5.50;99.90
23495;DHT22;26107;50.832;2.950;2024-03-08T05:14:42;5.40;99.90
23495;DHT22;26107;50.832;2.950;2024-03-08T05:29:43;5.30;99.90
23495;DHT22;26107;50.832;2.950;2024-03-08T05:44:44;5.20;99.90
23495;DHT22;26107;50.832;2.950;2024-03-08T05:59:45;5.20;99.90
23495;DHT22;26107;50.832;2.950;2024-03-08T06:14:48;5.00;99.90
23495;DHT22;26107;50.832;2.950;2024-03-08T06:29:52;4.90;99.90
23495;DHT22;26107;50.832;2.950;2024-03-08T07:00:00;4.80;99.90
23495;DHT22;26107;50.832;2.950;2024-03-08T07:15:05;4.90;99.90
23495;DHT22;26107;50.832;2.950;2024-03-08T07:30:06;5.00;99.90
23495;DHT22;26107;50.832;2.950;2024-03-08T07:45:11;5.10;99.90
23495;DHT22;26107;50.832;2.950;2024-03-08T08:00:13;5.30;99.90
23495;DHT22;26107;50.832;2.950;2024-03-08T08:15:20;5.30;99.90
23495;DHT22;26107;50.832;2.950;2024-03-08T08:30:25;5.60;99.90
23495;DHT22;26107;50.832;2.950;2024-03-08T08:45:28;5.70;99.90
23495;DHT22;26107;50.832;2.950;2024-03-08T09:00:34;6.10;99.90
23495;DHT22;26107;50.832;2.950;2024-03-08T09:15:37;6.40;99.90
23495;DHT22;26107;50.832;2.950;2024-03-08T09:30:40;6.90;99.90
23495;DHT22;26107;50.832;2.950;2024-03-08T09:45:42;7.10;99.90
23495;DHT22;26107;50.832;2.950;2024-03-08T10:00:45;7.40;99.90
23495;DHT22;26107;50.832;2.950;2024-03-08T10:15:49;7.80;99.90
23495;DHT22;26107;50.832;2.950;2024-03-08T10:30:51;8.10;99.90
23495;DHT22;26107;50.832;2.950;2024-03-08T10:46:04;8.40;99.90
23495;DHT22;26107;50.832;2.950;2024-03-08T11:01:09;8.80;99.90
23495;DHT22;26107;50.832;2.950;2024-03-08T11:16:11;8.90;99.90
23495;DHT22;26107;50.832;2.950;2024-03-08T11:46:19;9.70;99.90
23495;DHT22;26107;50.832;2.950;2024-03-08T12:01:20;10.20;99.90
23495;DHT22;26107;50.832;2.950;2024-03-08T12:16:20;10.20;99.90
23495;DHT22;26107;50.832;2.950;2024-03-08T12:31:23;10.70;99.90
23495;DHT22;26107;50.832;2.950;2024-03-08T12:46:26;11.00;99.90
23495;DHT22;26107;50.832;2.950;2024-03-08T13:01:27;11.60;99.90
23495;DHT22;26107;50.832;2.950;2024-03-08T13:16:34;12.00;99.90
23495;DHT22;26107;50.832;2.950;2024-03-08T13:31:35;12.20;99.90
23495;DHT22;26107;50.832;2.950;2024-03-08T13:46:39;12.50;99.90
23495;DHT22;26107;50.832;2.950;2024-03-08T14:01:42;13.00;99.90
23495;DHT22;26107;50.832;2.950;2024-03-08T14:16:44;13.40;99.90
23495;DHT22;26107;50.832;2.950;2024-03-08T14:31:44;13.90;99.90
23495;DHT22;26107;50.832;2.950;2024-03-08T14:46:45;16.30;99.90
23495;DHT22;26107;50.832;2.950;2024-03-08T15:01:47;21.50;99.90
23495;DHT22;26107;50.832;2.950;2024-03-08T15:16:47;25.30;97.10
23495;DHT22;26107;50.832;2.950;2024-03-08T15:31:53;25.50;92.10
23495;DHT22;26107;50.832;2.950;2024-03-08T15:46:56;22.00;93.70
23495;DHT22;26107;50.832;2.950;2024-03-08T16:01:57;18.80;96.70
23495;DHT22;26107;50.832;2.950;2024-03-08T16:16:58;17.30;99.90
23495;DHT22;26107;50.832;2.950;2024-03-08T16:31:58;17.50;99.50
23495;DHT22;26107;50.832;2.950;2024-03-08T16:46:59;16.90;99.90
23495;DHT22;26107;50.832;2.950;2024-03-08T17:02:00;15.70;99.90
23495;DHT22;26107;50.832;2.950;2024-03-08T17:17:01;14.90;99.90
23495;DHT22;26107;50.832;2.950;2024-03-08T17:32:03;14.20;99.90
23495;DHT22;26107;50.832;2.950;2024-03-08T17:47:09;13.40;99.90
23495;DHT22;26107;50.832;2.950;2024-03-08T18:02:10;12.80;99.90
23495;DHT22;26107;50.832;2.950;2024-03-08T18:17:15;12.50;99.90
23495;DHT22;26107;50.832;2.950;2024-03-08T18:32:16;12.10;99.90
23495;DHT22;26107;50.832;2.950;2024-03-08T18:47:19;11.80;99.90
23495;DHT22;26107;50.832;2.950;2024-03-08T19:02:21;11.60;99.90
23495;DHT22;26107;50.832;2.950;2024-03-08T19:17:22;11.50;99.90
23495;DHT22;26107;50.832;2.950;2024-03-08T19:32:23;11.30;99.90
23495;DHT22;26107;50.832;2.950;2024-03-08T19:47:29;11.00;99.90
23495;DHT22;26107;50.832;2.950;2024-03-08T20:02:32;10.90;99.90
23495;DHT22;26107;50.832;2.950;2024-03-08T20:17:43;10.70;99.90
23495;DHT22;26107;50.832;2.950;2024-03-08T20:32:47;10.70;99.90
23495;DHT22;26107;50.832;2.950;2024-03-08T20:47:53;10.60;99.90
23495;DHT22;26107;50.832;2.950;2024-03-08T21:02:54;10.60;99.90
23495;DHT22;26107;50.832;2.950;2024-03-08T21:17:54;10.80;99.90
23495;DHT22;26107;50.832;2.950;2024-03-08T21:32:55;10.80;99.90
23495;DHT22;26107;50.832;2.950;2024-03-08T21:47:59;10.90;99.90
23495;DHT22;26107;50.832;2.950;2024-03-08T22:03:05;11.10;99.90
23495;DHT22;26107;50.832;2.950;2024-03-08T22:18:06;11.20;99.90
23495;DHT22;26107;50.832;2.950;2024-03-08T22:33:10;11.10;99.90
23495;DHT22;26107;50.832;2.950;2024-03-08T22:48:13;10.90;99.90
23495;DHT22;26107;50.832;2.950;2024-03-08T23:03:16;11.10;99.90
23495;DHT22;26107;50.832;2.950;2024-03-08T23:18:17;10.90;99.90
23495;DHT22;26107;50.832;2.950;2024-03-08T23:33:21;10.90;99.90
23495;DHT22;26107;50.832;2.950;2024-03-08T23:48:22;10.80;99.90
